Time;durP1;ratioP1;P1;durP2;ratioP2;P2;SDS_P1;SDS_P2;PMS_P1;PMS_P2;Temp;Humidity;BMP_temperature;BMP_pressure;BME280_temperature;BME280_humidity;BME280_pressure;Samples;Min_cycle;Max_cycle;Signal;HPM_P1;HPM_P2
2022/10/12 00:02:11;;;;;;;;;;;7.30;99.90;;;;;;5014645;28;20008;-66
2022/10/12 00:04:36;;;;;;;;;;;7.30;99.90;;;;;;5031475;28;19925;-67
2022/10/12 00:07:02;;;;;;;;;;;7.30;99.90;;;;;;5031980;28;20387;-67
2022/10/12 00:09:37;;;;;;;;;;;7.30;99.90;;;;;;5014094;28;19954;-67
2022/10/12 00:12:02;;;;;;;;;;;7.30;99.90;;;;;;5015000;28;20361;-67
2022/10/12 00:14:31;;;;;;;;;;;7.30;99.90;;;;;;5031793;28;19968;-67
2022/10/12 00:16:57;;;;;;;;;;;7.30;99.90;;;;;;5013387;28;20032;-67
2022/10/12 00:19:22;;;;;;;;;;;7.30;99.90;;;;;;5013858;28;20436;-66
2022/10/12 00:21:51;;;;;;;;;;;7.30;99.90;;;;;;5014788;28;19927;-67
2022/10/12 00:24:36;;;;;;;;;;;7.30;99.90;;;;;;5013458;28;19925;-66
2022/10/12 00:27:02;;;;;;;;;;;7.30;99.90;;;;;;5000554;28;19960;-66
2022/10/12 00:29:27;;;;;;;;;;;7.30;99.90;;;;;;5031813;28;20409;-66
2022/10/12 00:31:53;;;;;;;;;;;7.30;99.90;;;;;;5030773;28;19921;-66
2022/10/12 00:34:21;;;;;;;;;;;7.30;99.90;;;;;;5014426;28;19991;-66
2022/10/12 00:36:47;;;;;;;;;;;7.30;99.90;;;;;;5014079;28;19975;-66
2022/10/12 00:39:12;;;;;;;;;;;7.30;99.90;;;;;;5013680;28;20325;-66
2022/10/12 00:41:40;;;;;;;;;;;7.30;99.90;;;;;;5031494;28;19984;-66
2022/10/12 00:44:25;;;;;;;;;;;7.30;99.90;;;;;;5014362;28;20390;-66
2022/10/12 00:46:51;;;;;;;;;;;7.30;99.90;;;;;;5027527;28;20360;-66
2022/10/12 00:49:16;;;;;;;;;;;7.30;99.90;;;;;;5031955;28;19921;-66
2022/10/12 00:51:44;;;;;;;;;;;7.40;99.90;;;;;;5023688;28;19925;-66
2022/10/12 00:54:12;;;;;;;;;;;7.30;99.90;;;;;;5005461;28;20297;-66
2022/10/12 00:56:39;;;;;;;;;;;7.30;99.90;;;;;;5021891;28;19984;-67
2022/10/12 00:59:07;;;;;;;;;;;7.30;99.90;;;;;;5021080;28;20008;-66
2022/10/12 01:01:34;;;;;;;;;;;7.30;99.90;;;;;;5007328;28;20021;-66
2022/10/12 01:04:00;;;;;;;;;;;7.30;99.90;;;;;;5024842;28;19972;-66
2022/10/12 01:06:25;;;;;;;;;;;7.30;99.90;;;;;;5006643;28;19961;-67
2022/10/12 01:08:53;;;;;;;;;;;7.30;99.90;;;;;;5024100;28;19932;-66
2022/10/12 01:11:19;;;;;;;;;;;7.30;99.90;;;;;;5008556;28;19921;-66
2022/10/12 01:13:44;;;;;;;;;;;7.30;99.90;;;;;;5005576;28;19928;-66
2022/10/12 01:16:21;;;;;;;;;;;7.30;99.90;;;;;;5027040;28;20288;-66
2022/10/12 01:18:57;;;;;;;;;;;7.30;99.90;;;;;;5004627;28;19921;-66
2022/10/12 01:21:23;;;;;;;;;;;7.30;99.90;;;;;;5023782;28;20285;-66
2022/10/12 01:24:09;;;;;;;;;;;7.30;99.90;;;;;;5026512;28;19948;-67
2022/10/12 01:26:52;;;;;;;;;;;7.30;99.90;;;;;;5008355;28;19929;-67
2022/10/12 01:29:20;;;;;;;;;;;7.30;99.90;;;;;;5020992;28;19968;-66
2022/10/12 01:31:50;;;;;;;;;;;7.30;99.90;;;;;;5009088;28;19968;-66
2022/10/12 01:34:28;;;;;;;;;;;7.30;99.90;;;;;;5002162;28;19921;-66
2022/10/12 01:37:03;;;;;;;;;;;7.30;99.90;;;;;;5007407;28;20044;-66
2022/10/12 01:39:45;;;;;;;;;;;7.30;99.90;;;;;;5008410;28;19928;-66
2022/10/12 01:42:15;;;;;;;;;;;7.30;99.90;;;;;;5019336;28;19965;-66
2022/10/12 01:44:40;;;;;;;;;;;7.30;99.90;;;;;;5001886;28;19964;-66
2022/10/12 01:47:06;;;;;;;;;;;7.40;99.90;;;;;;5007725;28;19960;-66
2022/10/12 01:49:33;;;;;;;;;;;7.40;99.90;;;;;;5007608;28;20293;-66
2022/10/12 01:52:17;;;;;;;;;;;7.40;99.90;;;;;;5031984;28;20345;-66
2022/10/12 01:54:50;;;;;;;;;;;7.50;99.90;;;;;;5031816;28;19928;-67
2022/10/12 01:57:34;;;;;;;;;;;7.60;99.90;;;;;;5015704;28;19921;-66
2022/10/12 02:00:03;;;;;;;;;;;7.60;99.90;;;;;;5016940;28;19928;-66
2022/10/12 02:02:58;;;;;;;;;;;7.60;99.90;;;;;;5033759;28;20011;-66
2022/10/12 02:05:29;;;;;;;;;;;7.70;99.90;;;;;;4998673;28;20292;-66
2022/10/12 02:07:58;;;;;;;;;;;7.70;99.90;;;;;;5034495;28;19921;-66
2022/10/12 02:10:27;;;;;;;;;;;7.70;99.90;;;;;;5033570;28;19923;-67
2022/10/12 02:12:53;;;;;;;;;;;7.70;99.90;;;;;;5034478;28;19932;-66
2022/10/12 02:15:21;;;;;;;;;;;7.70;99.90;;;;;;5016702;28;19921;-67
2022/10/12 02:17:48;;;;;;;;;;;7.70;99.90;;;;;;5033525;28;19948;-67
2022/10/12 02:20:15;;;;;;;;;;;7.70;99.90;;;;;;5034469;28;19920;-66
2022/10/12 02:22:42;;;;;;;;;;;7.80;99.90;;;;;;5034291;28;19943;-66
2022/10/12 02:25:10;;;;;;;;;;;7.80;99.90;;;;;;5015705;28;19921;-66
2022/10/12 02:27:38;;;;;;;;;;;7.80;99.90;;;;;;5033915;28;19927;-66
2022/10/12 02:30:07;;;;;;;;;;;7.80;99.90;;;;;;5016423;28;19925;-66
2022/10/12 02:32:38;;;;;;;;;;;7.80;99.90;;;;;;5033662;28;19925;-66
2022/10/12 02:35:04;;;;;;;;;;;7.70;99.90;;;;;;5031769;28;20424;-67
2022/10/12 02:37:50;;;;;;;;;;;7.70;99.90;;;;;;5015057;28;20036;-67
2022/10/12 02:40:15;;;;;;;;;;;8.40;99.90;;;;;;5032325;28;19928;-67
2022/10/12 02:42:47;;;;;;;;;;;7.80;99.90;;;;;;5016106;28;19924;-66
2022/10/12 02:45:14;;;;;;;;;;;7.70;99.90;;;;;;5015748;28;19925;-66
2022/10/12 02:47:40;;;;;;;;;;;7.60;99.90;;;;;;5033603;28;19927;-66
2022/10/12 02:50:07;;;;;;;;;;;7.70;99.90;;;;;;5015952;28;20262;-66
2022/10/12 02:52:32;;;;;;;;;;;7.70;99.90;;;;;;5032956;28;20319;-66
2022/10/12 02:54:58;;;;;;;;;;;7.70;99.90;;;;;;5033853;28;19921;-67
2022/10/12 02:57:24;;;;;;;;;;;7.60;99.90;;;;;;5033453;28;20400;-67
2022/10/12 02:59:49;;;;;;;;;;;7.70;99.90;;;;;;5032805;28;19921;-67
2022/10/12 03:02:15;;;;;;;;;;;7.70;99.90;;;;;;5033826;28;19921;-66
2022/10/12 03:04:40;;;;;;;;;;;7.60;99.90;;;;;;5015104;28;19929;-66
2022/10/12 03:07:06;;;;;;;;;;;7.60;99.90;;;;;;5033009;28;19928;-67
2022/10/12 03:09:31;;;;;;;;;;;7.60;99.90;;;;;;5015164;28;19921;-66
2022/10/12 03:11:57;;;;;;;;;;;7.60;99.90;;;;;;5033663;28;20007;-67
2022/10/12 03:14:25;;;;;;;;;;;7.70;99.90;;;;;;5032554;28;20353;-67
2022/10/12 03:16:51;;;;;;;;;;;7.70;99.90;;;;;;5032753;28;19937;-65
2022/10/12 03:19:17;;;;;;;;;;;7.70;99.90;;;;;;5014925;28;19943;-68
2022/10/12 03:21:42;;;;;;;;;;;7.60;99.90;;;;;;5032139;28;20377;-66
2022/10/12 03:24:08;;;;;;;;;;;7.80;99.90;;;;;;5032692;28;20020;-66
2022/10/12 03:26:33;;;;;;;;;;;7.60;99.90;;;;;;5032352;28;20004;-66
2022/10/12 03:28:59;;;;;;;;;;;7.60;99.90;;;;;;5033406;28;20027;-66
2022/10/12 03:31:24;;;;;;;;;;;7.90;99.90;;;;;;5032744;28;19946;-67
2022/10/12 03:33:50;;;;;;;;;;;7.60;99.90;;;;;;5013935;28;19933;-67
2022/10/12 03:36:15;;;;;;;;;;;7.60;99.90;;;;;;5014411;28;19928;-67
2022/10/12 03:38:44;;;;;;;;;;;8.20;99.90;;;;;;5033105;28;20265;-66
2022/10/12 03:41:09;;;;;;;;;;;7.60;99.90;;;;;;5014987;28;20436;-65
2022/10/12 03:43:38;;;;;;;;;;;7.50;99.90;;;;;;5014860;28;19999;-67
2022/10/12 03:46:03;;;;;;;;;;;7.50;99.90;;;;;;5032289;28;20012;-65
2022/10/12 03:48:29;;;;;;;;;;;7.50;99.90;;;;;;5031540;28;19921;-66
2022/10/12 03:50:54;;;;;;;;;;;7.50;99.90;;;;;;5032262;28;19927;-66
2022/10/12 03:53:20;;;;;;;;;;;7.70;99.90;;;;;;5032356;28;19928;-66
2022/10/12 03:55:45;;;;;;;;;;;7.40;99.90;;;;;;5014332;28;19921;-66
2022/10/12 03:58:12;;;;;;;;;;;7.40;99.90;;;;;;5014619;28;19927;-68
2022/10/12 04:00:37;;;;;;;;;;;7.40;99.90;;;;;;5014949;28;20266;-65
2022/10/12 04:03:03;;;;;;;;;;;7.40;99.90;;;;;;5014403;28;19928;-65
2022/10/12 04:05:29;;;;;;;;;;;7.40;99.90;;;;;;5014278;28;20392;-66
2022/10/12 04:07:57;;;;;;;;;;;7.40;99.90;;;;;;5013894;28;19929;-66
2022/10/12 04:10:26;;;;;;;;;;;7.60;99.90;;;;;;5031327;28;20004;-65
2022/10/12 04:12:55;;;;;;;;;;;7.30;99.90;;;;;;5014660;28;19925;-68
2022/10/12 04:15:20;;;;;;;;;;;7.30;99.90;;;;;;5032074;28;19921;-68
2022/10/12 04:17:46;;;;;;;;;;;7.30;99.90;;;;;;5031211;28;19921;-66
2022/10/12 04:20:11;;;;;;;;;;;7.40;99.90;;;;;;5032246;28;19928;-67
2022/10/12 04:22:37;;;;;;;;;;;7.20;99.90;;;;;;5014441;28;19932;-67
2022/10/12 04:25:03;;;;;;;;;;;7.20;99.90;;;;;;5013849;28;19932;-67
2022/10/12 04:27:29;;;;;;;;;;;7.20;99.90;;;;;;5014390;28;20339;-67
2022/10/12 04:29:54;;;;;;;;;;;7.20;99.90;;;;;;5013051;28;20296;-68
2022/10/12 04:32:20;;;;;;;;;;;7.20;99.90;;;;;;5010579;28;19929;-68
2022/10/12 04:34:45;;;;;;;;;;;7.20;99.90;;;;;;5013723;28;20020;-68
2022/10/12 04:37:11;;;;;;;;;;;7.20;99.90;;;;;;5013096;28;19925;-68
2022/10/12 04:39:36;;;;;;;;;;;7.20;99.90;;;;;;5032248;28;19987;-67
2022/10/12 04:42:02;;;;;;;;;;;7.20;99.90;;;;;;5032437;28;19924;-68
2022/10/12 04:44:27;;;;;;;;;;;7.20;99.90;;;;;;5012543;28;19927;-68
2022/10/12 04:46:53;;;;;;;;;;;7.60;99.90;;;;;;5014622;28;19921;-68
2022/10/12 04:49:18;;;;;;;;;;;7.30;99.90;;;;;;5031291;28;19921;-68
2022/10/12 04:51:44;;;;;;;;;;;7.20;99.90;;;;;;5013365;28;19925;-68
2022/10/12 04:54:10;;;;;;;;;;;7.20;99.90;;;;;;5013644;28;19932;-68
2022/10/12 04:56:35;;;;;;;;;;;7.30;99.90;;;;;;5031497;28;19970;-68
2022/10/12 04:59:01;;;;;;;;;;;7.20;99.90;;;;;;5030893;28;19964;-68
2022/10/12 05:01:26;;;;;;;;;;;7.20;99.90;;;;;;5013851;28;20316;-69
2022/10/12 05:03:52;;;;;;;;;;;7.20;99.90;;;;;;5031670;28;19925;-68
2022/10/12 05:06:17;;;;;;;;;;;7.20;99.90;;;;;;5012754;28;19972;-70
2022/10/12 05:08:43;;;;;;;;;;;7.10;99.90;;;;;;5030242;28;20644;-70
2022/10/12 05:11:08;;;;;;;;;;;7.20;99.90;;;;;;5014187;28;19928;-69
2022/10/12 05:13:34;;;;;;;;;;;7.20;99.90;;;;;;5030695;28;20430;-71
2022/10/12 05:16:00;;;;;;;;;;;7.10;99.90;;;;;;5031338;28;20055;-69
2022/10/12 05:18:28;;;;;;;;;;;7.10;99.90;;;;;;5031156;28;19936;-71
2022/10/12 05:20:56;;;;;;;;;;;7.10;99.90;;;;;;5030383;28;19925;-68
2022/10/12 05:23:22;;;;;;;;;;;7.10;99.90;;;;;;5013455;28;19925;-69
2022/10/12 05:25:47;;;;;;;;;;;7.10;99.90;;;;;;5013770;28;19921;-67
2022/10/12 05:28:13;;;;;;;;;;;7.10;99.90;;;;;;5030506;28;19921;-65
2022/10/12 05:30:38;;;;;;;;;;;7.00;99.90;;;;;;5030883;28;19927;-66
2022/10/12 05:33:04;;;;;;;;;;;7.00;99.90;;;;;;5026088;28;19920;-67
2022/10/12 05:35:29;;;;;;;;;;;6.90;99.90;;;;;;5030981;28;19921;-67
2022/10/12 05:37:55;;;;;;;;;;;7.10;99.90;;;;;;5012930;28;20363;-67
2022/10/12 05:40:20;;;;;;;;;;;7.00;99.90;;;;;;5012795;28;20578;-67
2022/10/12 05:42:46;;;;;;;;;;;6.90;99.90;;;;;;5013482;28;19928;-67
2022/10/12 05:45:12;;;;;;;;;;;6.90;99.90;;;;;;5030906;28;19967;-69
2022/10/12 05:47:38;;;;;;;;;;;6.80;99.90;;;;;;5014295;28;19920;-68
2022/10/12 05:50:04;;;;;;;;;;;6.80;99.90;;;;;;5014636;28;20048;-68
2022/10/12 05:52:29;;;;;;;;;;;6.80;99.90;;;;;;5016439;28;20351;-69
2022/10/12 05:54:55;;;;;;;;;;;6.80;99.90;;;;;;5016064;28;19928;-69
2022/10/12 05:57:20;;;;;;;;;;;6.80;99.90;;;;;;5035338;28;20281;-67
2022/10/12 05:59:46;;;;;;;;;;;6.80;99.90;;;;;;5017132;28;20287;-67
2022/10/12 06:02:12;;;;;;;;;;;6.70;99.90;;;;;;5033802;28;19921;-68
2022/10/12 06:04:37;;;;;;;;;;;6.70;99.90;;;;;;5016921;28;19925;-68
2022/10/12 06:07:03;;;;;;;;;;;6.70;99.90;;;;;;5034927;28;19928;-67
2022/10/12 06:09:29;;;;;;;;;;;6.70;99.90;;;;;;5034030;28;20001;-68
2022/10/12 06:12:00;;;;;;;;;;;6.70;99.90;;;;;;5035207;28;19928;-68
2022/10/12 06:14:32;;;;;;;;;;;6.70;99.90;;;;;;5029572;28;20288;-68
2022/10/12 06:16:57;;;;;;;;;;;6.70;99.90;;;;;;5012384;28;20373;-68
2022/10/12 06:19:23;;;;;;;;;;;6.80;99.90;;;;;;5016619;28;19928;-68
2022/10/12 06:21:48;;;;;;;;;;;6.80;99.90;;;;;;5012525;28;20361;-68
2022/10/12 06:24:14;;;;;;;;;;;6.80;99.90;;;;;;5015801;28;19924;-68
2022/10/12 06:26:39;;;;;;;;;;;6.90;99.90;;;;;;5016000;28;19967;-69
2022/10/12 06:29:05;;;;;;;;;;;6.90;99.90;;;;;;5034582;28;20032;-68
2022/10/12 06:31:32;;;;;;;;;;;7.00;99.90;;;;;;5010894;28;19924;-69
2022/10/12 06:33:58;;;;;;;;;;;7.10;99.90;;;;;;5031828;28;19925;-70
2022/10/12 06:36:23;;;;;;;;;;;7.10;99.90;;;;;;5030919;28;19921;-70
2022/10/12 06:38:49;;;;;;;;;;;7.20;99.90;;;;;;5033718;28;19920;-68
2022/10/12 06:41:14;;;;;;;;;;;7.20;99.90;;;;;;5033947;28;20265;-69
2022/10/12 06:43:40;;;;;;;;;;;7.70;99.90;;;;;;5014875;28;19931;-68
2022/10/12 06:46:05;;;;;;;;;;;7.30;99.90;;;;;;5032974;28;19943;-66
2022/10/12 06:48:31;;;;;;;;;;;7.20;99.90;;;;;;5015597;28;19929;-67
2022/10/12 06:50:57;;;;;;;;;;;7.20;99.90;;;;;;5012732;28;19921;-68
2022/10/12 06:53:24;;;;;;;;;;;7.20;99.90;;;;;;5015552;28;19933;-68
2022/10/12 06:55:49;;;;;;;;;;;7.30;99.90;;;;;;5015431;28;19921;-68
2022/10/12 06:58:15;;;;;;;;;;;7.30;99.90;;;;;;5013789;28;19921;-67
2022/10/12 07:00:41;;;;;;;;;;;7.30;99.90;;;;;;5014603;28;19928;-67
2022/10/12 07:03:09;;;;;;;;;;;7.30;99.90;;;;;;5015802;28;19932;-67
2022/10/12 07:05:35;;;;;;;;;;;7.40;99.90;;;;;;5015003;28;19922;-66
2022/10/12 07:08:07;;;;;;;;;;;7.50;99.90;;;;;;5033817;28;19921;-67
2022/10/12 07:10:32;;;;;;;;;;;7.50;99.90;;;;;;5033611;28;20319;-67
2022/10/12 07:12:58;;;;;;;;;;;7.70;99.90;;;;;;5032829;28;19932;-67
2022/10/12 07:15:23;;;;;;;;;;;7.70;99.90;;;;;;5030263;28;20428;-68
2022/10/12 07:17:49;;;;;;;;;;;7.80;99.90;;;;;;5032253;28;19921;-67
2022/10/12 07:20:15;;;;;;;;;;;8.00;99.90;;;;;;5031723;28;19928;-68
2022/10/12 07:22:40;;;;;;;;;;;8.10;99.90;;;;;;5028822;28;19947;-68
2022/10/12 07:25:06;;;;;;;;;;;8.20;99.90;;;;;;5033461;28;19921;-68
2022/10/12 07:27:31;;;;;;;;;;;8.30;99.90;;;;;;5029960;28;20626;-68
2022/10/12 07:30:00;;;;;;;;;;;8.50;99.90;;;;;;5013351;28;19929;-68
2022/10/12 07:32:28;;;;;;;;;;;8.70;99.90;;;;;;5013386;28;20008;-69
2022/10/12 07:34:54;;;;;;;;;;;8.80;99.90;;;;;;5031077;28;20019;-68
2022/10/12 07:37:22;;;;;;;;;;;9.00;99.90;;;;;;5013541;28;20396;-70
2022/10/12 07:39:48;;;;;;;;;;;9.80;99.90;;;;;;5010064;28;19921;-71
2022/10/12 07:42:13;;;;;;;;;;;9.40;99.90;;;;;;5014080;28;20110;-68
2022/10/12 07:44:39;;;;;;;;;;;9.60;99.90;;;;;;5013290;28;19921;-69
2022/10/12 07:47:05;;;;;;;;;;;9.80;99.90;;;;;;5030548;28;19925;-68
2022/10/12 07:49:30;;;;;;;;;;;10.30;99.90;;;;;;5010073;28;19960;-68
2022/10/12 07:51:56;;;;;;;;;;;10.30;99.90;;;;;;5031225;28;19928;-68
2022/10/12 07:54:21;;;;;;;;;;;10.20;99.90;;;;;;5013426;28;19925;-68
2022/10/12 07:56:47;;;;;;;;;;;10.40;99.90;;;;;;5032393;28;20003;-68
2022/10/12 07:59:13;;;;;;;;;;;10.50;99.90;;;;;;5014926;28;19932;-68
2022/10/12 08:01:39;;;;;;;;;;;10.70;99.90;;;;;;5031120;28;20439;-69
2022/10/12 08:04:04;;;;;;;;;;;11.00;99.90;;;;;;5015067;28;19968;-68
2022/10/12 08:06:33;;;;;;;;;;;11.70;99.90;;;;;;5014362;28;20012;-69
2022/10/12 08:09:02;;;;;;;;;;;12.90;99.90;;;;;;5013641;28;20285;-69
2022/10/12 08:11:27;;;;;;;;;;;14.20;99.90;;;;;;5006744;28;19936;-69
2022/10/12 08:13:53;;;;;;;;;;;15.30;99.90;;;;;;5032373;28;19921;-69
2022/10/12 08:16:20;;;;;;;;;;;16.40;99.90;;;;;;5013696;28;19928;-69
2022/10/12 08:18:46;;;;;;;;;;;17.40;99.90;;;;;;5014167;28;19939;-70
2022/10/12 08:21:12;;;;;;;;;;;18.20;99.90;;;;;;5014680;28;19921;-70
2022/10/12 08:23:38;;;;;;;;;;;18.60;99.80;;;;;;5014091;28;19921;-70
2022/10/12 08:26:04;;;;;;;;;;;19.30;99.60;;;;;;5014459;28;19928;-69
2022/10/12 08:28:30;;;;;;;;;;;19.60;98.30;;;;;;5031998;28;19925;-70
2022/10/12 08:30:56;;;;;;;;;;;19.80;95.90;;;;;;5013872;28;20351;-69
2022/10/12 08:33:21;;;;;;;;;;;19.70;95.70;;;;;;5014510;28;19952;-69
2022/10/12 08:35:48;;;;;;;;;;;20.00;95.80;;;;;;5014549;28;19921;-70
2022/10/12 08:38:13;;;;;;;;;;;20.40;96.20;;;;;;5031467;28;19968;-69
2022/10/12 08:40:51;;;;;;;;;;;21.10;94.70;;;;;;5031131;28;20275;-70
2022/10/12 08:43:26;;;;;;;;;;;21.30;94.10;;;;;;5031479;28;19963;-69
2022/10/12 08:45:57;;;;;;;;;;;21.70;93.80;;;;;;5014898;28;20020;-69
2022/10/12 08:48:40;;;;;;;;;;;21.90;91.90;;;;;;5014254;28;19925;-70
2022/10/12 08:51:09;;;;;;;;;;;22.10;92.10;;;;;;5028556;28;19925;-69
2022/10/12 08:53:46;;;;;;;;;;;21.90;92.40;;;;;;5032022;28;19921;-70
2022/10/12 08:56:19;;;;;;;;;;;22.00;92.30;;;;;;5013964;28;20351;-69
2022/10/12 08:58:45;;;;;;;;;;;22.00;92.30;;;;;;5013443;28;19921;-70
2022/10/12 09:01:14;;;;;;;;;;;22.20;92.00;;;;;;5032450;28;19921;-70
2022/10/12 09:03:58;;;;;;;;;;;22.40;91.00;;;;;;5014007;28;20003;-70
2022/10/12 09:06:27;;;;;;;;;;;22.50;91.10;;;;;;5009841;28;19972;-70
2022/10/12 09:08:57;;;;;;;;;;;22.70;90.90;;;;;;5028244;28;19964;-70
2022/10/12 09:11:37;;;;;;;;;;;23.00;90.70;;;;;;5012231;28;20446;-70
2022/10/12 09:14:07;;;;;;;;;;;23.50;89.30;;;;;;5011364;28;19932;-70
2022/10/12 09:16:35;;;;;;;;;;;23.70;89.30;;;;;;5031542;28;19947;-70
2022/10/12 09:19:05;;;;;;;;;;;23.30;90.10;;;;;;5030736;28;20357;-70
2022/10/12 09:21:31;;;;;;;;;;;23.50;89.30;;;;;;5032766;28;19927;-70
2022/10/12 09:23:57;;;;;;;;;;;23.30;88.90;;;;;;5018124;28;19921;-70
2022/10/12 09:26:32;;;;;;;;;;;23.20;88.70;;;;;;5034833;28;20467;-70
2022/10/12 09:28:58;;;;;;;;;;;22.90;88.90;;;;;;5015523;28;19921;-70
2022/10/12 09:31:29;;;;;;;;;;;22.70;89.20;;;;;;5034714;28;19921;-70
2022/10/12 09:33:59;;;;;;;;;;;22.90;89.00;;;;;;5016736;28;20007;-70
2022/10/12 09:36:26;;;;;;;;;;;23.50;87.80;;;;;;5016681;28;19921;-67
2022/10/12 09:38:52;;;;;;;;;;;23.60;87.50;;;;;;5017562;28;19924;-70
2022/10/12 09:41:22;;;;;;;;;;;24.00;87.70;;;;;;5012113;28;19990;-70
2022/10/12 09:43:49;;;;;;;;;;;24.20;86.80;;;;;;5015372;28;19921;-70
2022/10/12 09:46:18;;;;;;;;;;;24.60;86.50;;;;;;5034589;28;19921;-70
2022/10/12 09:48:57;;;;;;;;;;;24.80;83.60;;;;;;5035186;28;19924;-70
2022/10/12 09:51:23;;;;;;;;;;;24.90;82.50;;;;;;5013503;28;19928;-70
2022/10/12 09:53:49;;;;;;;;;;;24.50;82.60;;;;;;5016527;28;19920;-70
2022/10/12 09:56:20;;;;;;;;;;;24.50;82.60;;;;;;5016035;28;19921;-70
2022/10/12 09:58:54;;;;;;;;;;;24.60;82.80;;;;;;5013698;28;19921;-69
2022/10/12 10:01:27;;;;;;;;;;;24.70;82.70;;;;;;5013189;28;19975;-70
2022/10/12 10:04:07;;;;;;;;;;;24.50;82.60;;;;;;5034917;28;20440;-70
2022/10/12 10:06:37;;;;;;;;;;;24.70;82.90;;;;;;5016415;28;20447;-70
2022/10/12 10:09:03;;;;;;;;;;;24.80;81.00;;;;;;5034359;28;19921;-70
2022/10/12 10:11:32;;;;;;;;;;;24.90;83.80;;;;;;5034257;28;19925;-70
2022/10/12 10:14:00;;;;;;;;;;;25.60;81.30;;;;;;5016914;28;19921;-70
2022/10/12 10:16:26;;;;;;;;;;;25.60;81.10;;;;;;5015745;28;20353;-70
2022/10/12 10:18:56;;;;;;;;;;;25.50;80.50;;;;;;5035128;28;20396;-70
2022/10/12 10:21:32;;;;;;;;;;;25.60;79.50;;;;;;5033811;28;19921;-70
2022/10/12 10:24:05;;;;;;;;;;;25.90;79.20;;;;;;5034807;28;20376;-70
2022/10/12 10:26:50;;;;;;;;;;;25.60;77.80;;;;;;5016795;28;19968;-70
2022/10/12 10:29:29;;;;;;;;;;;25.80;78.60;;;;;;5012509;28;20023;-70
2022/10/12 10:32:12;;;;;;;;;;;25.50;78.70;;;;;;5016249;28;19971;-70
2022/10/12 10:35:01;;;;;;;;;;;25.40;78.00;;;;;;5034411;28;19917;-70
2022/10/12 10:37:51;;;;;;;;;;;25.50;79.10;;;;;;5030322;28;20387;-70
2022/10/12 10:40:36;;;;;;;;;;;25.60;79.10;;;;;;5033779;28;20072;-70
2022/10/12 10:43:25;;;;;;;;;;;26.00;78.90;;;;;;5032688;28;19915;-71
2022/10/12 10:46:09;;;;;;;;;;;26.50;78.50;;;;;;5030556;28;19916;-70
2022/10/12 10:48:52;;;;;;;;;;;26.70;76.60;;;;;;5016075;28;19921;-70
2022/10/12 10:51:18;;;;;;;;;;;26.50;77.10;;;;;;5030059;28;19928;-70
2022/10/12 10:53:47;;;;;;;;;;;26.60;76.30;;;;;;5033807;28;19925;-71
2022/10/12 10:56:16;;;;;;;;;;;26.40;76.10;;;;;;5015795;28;19929;-70
2022/10/12 10:58:47;;;;;;;;;;;26.50;75.70;;;;;;5015257;28;19968;-70
2022/10/12 11:01:33;;;;;;;;;;;26.20;75.20;;;;;;5015990;28;20356;-70
2022/10/12 11:04:01;;;;;;;;;;;26.10;76.30;;;;;;5015516;28;19920;-70
2022/10/12 11:06:41;;;;;;;;;;;26.60;75.90;;;;;;5015500;28;19921;-70
2022/10/12 11:09:11;;;;;;;;;;;26.60;76.80;;;;;;5030092;28;19921;-70
2022/10/12 11:11:38;;;;;;;;;;;25.90;76.10;;;;;;5027700;28;20372;-70
2022/10/12 11:14:24;;;;;;;;;;;26.50;75.90;;;;;;5015400;28;19978;-70
2022/10/12 11:16:56;;;;;;;;;;;26.50;75.40;;;;;;5013710;28;19928;-70
2022/10/12 11:19:30;;;;;;;;;;;26.40;74.20;;;;;;5014345;28;20292;-70
2022/10/12 11:21:59;;;;;;;;;;;25.70;75.10;;;;;;5014958;28;20266;-70
2022/10/12 11:24:30;;;;;;;;;;;26.10;76.00;;;;;;5033232;28;19979;-70
2022/10/12 11:27:01;;;;;;;;;;;26.50;76.20;;;;;;5032674;28;19928;-70
2022/10/12 11:29:27;;;;;;;;;;;26.10;76.30;;;;;;5014999;28;20364;-70
2022/10/12 11:31:57;;;;;;;;;;;26.40;74.90;;;;;;5032492;28;19976;-70
2022/10/12 11:34:25;;;;;;;;;;;26.20;74.60;;;;;;5014717;28;20019;-70
2022/10/12 11:36:51;;;;;;;;;;;26.00;74.60;;;;;;5015270;28;19928;-70
2022/10/12 11:39:29;;;;;;;;;;;26.20;74.80;;;;;;5014290;28;19921;-70
2022/10/12 11:42:05;;;;;;;;;;;25.60;76.30;;;;;;5032834;28;19928;-70
2022/10/12 11:44:34;;;;;;;;;;;25.90;74.30;;;;;;5028491;28;19921;-70
2022/10/12 11:47:13;;;;;;;;;;;25.60;74.80;;;;;;5014281;28;19925;-70
2022/10/12 11:49:52;;;;;;;;;;;25.50;74.20;;;;;;5012438;28;19921;-70
2022/10/12 11:52:19;;;;;;;;;;;25.70;75.10;;;;;;5032579;28;20274;-70
2022/10/12 11:55:03;;;;;;;;;;;25.90;75.10;;;;;;5014146;28;19928;-70
2022/10/12 11:57:32;;;;;;;;;;;25.80;75.70;;;;;;5028932;28;20007;-70
2022/10/12 12:00:06;;;;;;;;;;;26.00;75.50;;;;;;5010794;28;20004;-70
2022/10/12 12:02:40;;;;;;;;;;;25.70;75.60;;;;;;5029303;28;19975;-70
2022/10/12 12:05:10;;;;;;;;;;;25.80;75.20;;;;;;5014987;28;20396;-70
2022/10/12 12:07:37;;;;;;;;;;;25.40;75.30;;;;;;5014732;28;20416;-70
2022/10/12 12:10:26;;;;;;;;;;;25.30;74.10;;;;;;5015247;28;19924;-70
2022/10/12 12:13:17;;;;;;;;;;;25.60;74.20;;;;;;4995917;28;20369;-70
2022/10/12 12:16:02;;;;;;;;;;;25.10;75.10;;;;;;5012782;28;20331;-70
2022/10/12 12:18:28;;;;;;;;;;;25.80;73.50;;;;;;5028929;28;19921;-70
2022/10/12 12:21:00;;;;;;;;;;;25.40;74.20;;;;;;5014364;28;20012;-71
2022/10/12 12:23:27;;;;;;;;;;;24.90;74.70;;;;;;5006747;28;19921;-70
2022/10/12 12:26:08;;;;;;;;;;;24.70;76.30;;;;;;5032050;28;19925;-70
2022/10/12 12:28:35;;;;;;;;;;;25.00;74.60;;;;;;5029539;28;19932;-70
2022/10/12 12:31:10;;;;;;;;;;;24.70;75.50;;;;;;5014432;28;20008;-71
2022/10/12 12:33:40;;;;;;;;;;;24.20;76.30;;;;;;5013780;28;19925;-71
2022/10/12 12:36:11;;;;;;;;;;;24.00;77.80;;;;;;5030832;28;19924;-71
2022/10/12 12:38:36;;;;;;;;;;;24.30;76.70;;;;;;5014202;28;20342;-71
2022/10/12 12:41:06;;;;;;;;;;;24.40;76.90;;;;;;5032331;28;20340;-71
2022/10/12 12:43:32;;;;;;;;;;;24.50;74.10;;;;;;5012953;28;19921;-72
2022/10/12 12:46:10;;;;;;;;;;;24.10;75.40;;;;;;5031525;28;20274;-71
2022/10/12 12:48:39;;;;;;;;;;;24.10;75.40;;;;;;5013711;28;19921;-72
2022/10/12 12:51:10;;;;;;;;;;;24.00;74.50;;;;;;5030449;28;19927;-70
2022/10/12 12:53:37;;;;;;;;;;;23.40;76.30;;;;;;5013928;28;19925;-70
2022/10/12 12:56:22;;;;;;;;;;;22.90;77.60;;;;;;5030635;28;20393;-70
2022/10/12 12:59:07;;;;;;;;;;;22.50;78.50;;;;;;5007188;28;19922;-70
2022/10/12 13:01:45;;;;;;;;;;;22.40;78.80;;;;;;5012124;28;19971;-70
2022/10/12 13:04:11;;;;;;;;;;;21.80;80.30;;;;;;5031283;28;19916;-71
2022/10/12 13:06:57;;;;;;;;;;;21.80;78.90;;;;;;5013246;28;19979;-70
2022/10/12 13:09:43;;;;;;;;;;;21.10;80.30;;;;;;4990487;28;19920;-71
2022/10/12 13:12:15;;;;;;;;;;;20.60;79.10;;;;;;5031116;28;19928;-69
2022/10/12 13:14:58;;;;;;;;;;;20.10;80.70;;;;;;5006988;28;19929;-70
2022/10/12 13:17:37;;;;;;;;;;;19.80;81.20;;;;;;5003682;28;19929;-70
2022/10/12 13:20:22;;;;;;;;;;;19.50;83.60;;;;;;5008448;28;20020;-73
2022/10/12 13:22:49;;;;;;;;;;;19.30;83.90;;;;;;5030910;28;19921;-68
2022/10/12 13:25:26;;;;;;;;;;;19.30;83.60;;;;;;5024509;28;19925;-71
2022/10/12 13:27:52;;;;;;;;;;;19.00;83.80;;;;;;5032326;28;19928;-72
2022/10/12 13:30:21;;;;;;;;;;;18.40;84.60;;;;;;5012299;28;19928;-71
2022/10/12 13:32:50;;;;;;;;;;;18.10;85.10;;;;;;5029274;28;19971;-68
2022/10/12 13:35:21;;;;;;;;;;;18.00;86.60;;;;;;5009858;28;19921;-69
2022/10/12 13:37:58;;;;;;;;;;;17.60;86.90;;;;;;5008193;28;19925;-70
2022/10/12 13:40:31;;;;;;;;;;;17.50;87.30;;;;;;5027037;28;19932;-71
2022/10/12 13:43:15;;;;;;;;;;;17.40;88.00;;;;;;5010444;28;20388;-70
2022/10/12 13:45:45;;;;;;;;;;;17.20;89.40;;;;;;5027535;28;19925;-72
2022/10/12 13:48:18;;;;;;;;;;;17.20;89.10;;;;;;5012998;28;19921;-74
2022/10/12 13:50:50;;;;;;;;;;;17.00;89.00;;;;;;5008293;28;19929;-73
2022/10/12 13:53:22;;;;;;;;;;;16.70;89.70;;;;;;5028938;28;19936;-73
2022/10/12 13:55:58;;;;;;;;;;;16.80;89.90;;;;;;5028680;28;19921;-74
2022/10/12 13:58:29;;;;;;;;;;;16.60;90.20;;;;;;5028543;28;19968;-70
2022/10/12 14:00:55;;;;;;;;;;;16.50;90.70;;;;;;5011210;28;19928;-69
2022/10/12 14:03:25;;;;;;;;;;;16.40;91.10;;;;;;5030805;28;19928;-70
2022/10/12 14:05:52;;;;;;;;;;;16.20;91.20;;;;;;5030459;28;19932;-71
2022/10/12 14:08:25;;;;;;;;;;;16.20;91.50;;;;;;5032697;28;19928;-71
2022/10/12 14:10:52;;;;;;;;;;;16.10;91.90;;;;;;5034522;28;19999;-71
2022/10/12 14:13:24;;;;;;;;;;;16.10;92.00;;;;;;5034527;28;19921;-72
2022/10/12 14:15:50;;;;;;;;;;;16.00;92.10;;;;;;5032686;28;20015;-69
2022/10/12 14:18:34;;;;;;;;;;;16.00;92.50;;;;;;5034155;28;19999;-68
2022/10/12 14:21:05;;;;;;;;;;;16.00;92.70;;;;;;5015817;28;19928;-70
2022/10/12 14:23:33;;;;;;;;;;;16.00;93.00;;;;;;5011018;28;19947;-69
2022/10/12 14:26:19;;;;;;;;;;;16.10;93.10;;;;;;5015264;28;19921;-70
2022/10/12 14:28:44;;;;;;;;;;;16.20;93.20;;;;;;5030286;28;20353;-69
2022/10/12 14:31:10;;;;;;;;;;;16.30;93.00;;;;;;5034095;28;19967;-69
2022/10/12 14:33:35;;;;;;;;;;;16.20;92.90;;;;;;5033519;28;20051;-71
2022/10/12 14:36:14;;;;;;;;;;;16.20;93.10;;;;;;5032900;28;19967;-72
2022/10/12 14:38:40;;;;;;;;;;;16.20;93.20;;;;;;5013603;28;19946;-71